Time;durP1;ratioP1;P1;durP2;ratioP2;P2;SDS_P1;SDS_P2;PMS_P1;PMS_P2;Temp;Humidity;BMP_temperature;BMP_pressure;BME280_temperature;BME280_humidity;BME280_pressure;Samples;Min_cycle;Max_cycle;Signal;HPM_P1;HPM_P2
2022/06/12 00:01:49;;;;;;;;;;;26.10;37.90;;;;;;4107739;28;19965;-45
2022/06/12 00:03:51;;;;;;;;;;;26.20;37.80;;;;;;4099196;28;19961;-42
2022/06/12 00:05:54;;;;;;;;;;;26.30;37.60;;;;;;4099346;28;19929;-45
2022/06/12 00:07:56;;;;;;;;;;;26.50;37.60;;;;;;4108102;28;20429;-44
2022/06/12 00:09:58;;;;;;;;;;;26.60;38.10;;;;;;4101870;28;19930;-45
2022/06/12 00:11:59;;;;;;;;;;;26.70;37.40;;;;;;4098882;28;19950;-43
2022/06/12 00:14:03;;;;;;;;;;;26.80;37.30;;;;;;4107169;28;19925;-41
2022/06/12 00:16:05;;;;;;;;;;;26.90;37.30;;;;;;4104025;28;19929;-44
2022/06/12 00:18:06;;;;;;;;;;;27.00;37.60;;;;;;4098882;28;20237;-46
2022/06/12 00:20:09;;;;;;;;;;;27.00;37.60;;;;;;4101956;28;19932;-42
2022/06/12 00:22:11;;;;;;;;;;;27.00;37.20;;;;;;4108769;28;20724;-45
2022/06/12 00:24:14;;;;;;;;;;;26.60;37.20;;;;;;4101033;28;20425;-43
2022/06/12 00:26:20;;;;;;;;;;;26.20;37.50;;;;;;4100410;28;19936;-44
2022/06/12 00:28:22;;;;;;;;;;;25.90;37.80;;;;;;4106272;28;20273;-43
2022/06/12 00:30:25;;;;;;;;;;;25.50;38.30;;;;;;4106129;28;20670;-41
2022/06/12 00:32:29;;;;;;;;;;;25.20;38.40;;;;;;4100692;28;20015;-44
2022/06/12 00:34:33;;;;;;;;;;;25.00;38.70;;;;;;4100145;28;19987;-46
2022/06/12 00:36:35;;;;;;;;;;;24.70;38.80;;;;;;4107717;28;19964;-44
2022/06/12 00:38:39;;;;;;;;;;;24.60;39.20;;;;;;4101855;28;20339;-42
2022/06/12 00:40:41;;;;;;;;;;;24.40;39.40;;;;;;4101348;28;19928;-47
2022/06/12 00:42:48;;;;;;;;;;;24.10;37.90;;;;;;4102873;28;19929;-45
2022/06/12 00:44:53;;;;;;;;;;;23.80;37.80;;;;;;4106095;28;19924;-50
2022/06/12 00:46:57;;;;;;;;;;;23.60;38.60;;;;;;4106138;28;20391;-48
2022/06/12 00:48:58;;;;;;;;;;;23.40;39.10;;;;;;4096955;28;19945;-47
2022/06/12 00:51:17;;;;;;;;;;;23.30;39.10;;;;;;4099294;28;19972;-43
2022/06/12 00:53:22;;;;;;;;;;;23.20;39.60;;;;;;4100365;28;19932;-47
2022/06/12 00:55:34;;;;;;;;;;;23.00;39.60;;;;;;4099715;28;20361;-45
2022/06/12 00:57:36;;;;;;;;;;;22.90;40.00;;;;;;4101988;28;19936;-44
2022/06/12 00:59:45;;;;;;;;;;;22.70;40.10;;;;;;4105744;28;21016;-47
2022/06/12 01:01:49;;;;;;;;;;;22.60;40.20;;;;;;4102454;28;20011;-44
2022/06/12 01:08:31;;;;;;;;;;;22.30;40.60;;;;;;4112467;28;19925;-43
2022/06/12 01:10:34;;;;;;;;;;;22.10;40.70;;;;;;4108903;28;20538;-46
2022/06/12 01:12:37;;;;;;;;;;;22.00;40.80;;;;;;4110167;28;20286;-46
2022/06/12 01:14:44;;;;;;;;;;;21.90;41.10;;;;;;4111586;28;19929;-45
2022/06/12 01:16:48;;;;;;;;;;;21.80;41.00;;;;;;4115750;28;19929;-44
2022/06/12 01:18:51;;;;;;;;;;;21.70;41.20;;;;;;4109649;28;20904;-43
2022/06/12 01:20:58;;;;;;;;;;;21.60;41.30;;;;;;4106707;28;20369;-45
2022/06/12 01:23:11;;;;;;;;;;;21.50;41.30;;;;;;4090781;28;19929;-45
2022/06/12 01:25:16;;;;;;;;;;;21.40;41.50;;;;;;4108240;28;19929;-46
2022/06/12 01:27:17;;;;;;;;;;;21.30;41.70;;;;;;4111436;28;19936;-44
2022/06/12 01:29:37;;;;;;;;;;;21.20;41.70;;;;;;4110566;28;20138;-49
2022/06/12 01:31:53;;;;;;;;;;;21.20;41.80;;;;;;4115686;28;19940;-43
2022/06/12 01:33:59;;;;;;;;;;;21.10;42.00;;;;;;4112253;28;20405;-43
2022/06/12 01:36:00;;;;;;;;;;;21.00;42.10;;;;;;4113743;28;19940;-47
2022/06/12 01:38:22;;;;;;;;;;;20.90;42.10;;;;;;4106284;28;19924;-45
2022/06/12 01:40:46;;;;;;;;;;;20.80;42.20;;;;;;4114351;28;19929;-49
2022/06/12 01:42:52;;;;;;;;;;;20.80;42.20;;;;;;4088481;28;19929;-47
2022/06/12 01:45:12;;;;;;;;;;;20.70;42.40;;;;;;4113901;28;20468;-48
2022/06/12 01:47:34;;;;;;;;;;;20.60;42.50;;;;;;4106641;28;20432;-48
2022/06/12 01:49:44;;;;;;;;;;;20.50;42.70;;;;;;4106032;28;19929;-43
2022/06/12 01:51:54;;;;;;;;;;;20.40;42.80;;;;;;4106806;28;20411;-49
2022/06/12 01:54:14;;;;;;;;;;;20.40;42.80;;;;;;4106325;28;20685;-44
2022/06/12 01:56:16;;;;;;;;;;;20.30;42.90;;;;;;4109137;28;19935;-49
2022/06/12 01:58:17;;;;;;;;;;;20.20;42.90;;;;;;4090982;28;20060;-45
2022/06/12 02:00:23;;;;;;;;;;;20.20;43.10;;;;;;4112548;28;19929;-44
2022/06/12 02:02:29;;;;;;;;;;;20.10;43.20;;;;;;4115501;28;20028;-42
2022/06/12 02:04:33;;;;;;;;;;;20.10;43.40;;;;;;4106646;28;21059;-45
2022/06/12 02:06:48;;;;;;;;;;;20.00;43.40;;;;;;4103812;28;20020;-44
2022/06/12 02:09:02;;;;;;;;;;;20.00;43.40;;;;;;4086181;28;20202;-48
2022/06/12 02:13:34;;;;;;;;;;;19.80;43.60;;;;;;4111528;28;20319;-47
2022/06/12 02:15:38;;;;;;;;;;;19.70;43.70;;;;;;4109252;28;21046;-42
2022/06/12 02:17:44;;;;;;;;;;;19.70;43.80;;;;;;4103440;28;19932;-44
2022/06/12 02:19:47;;;;;;;;;;;19.70;43.90;;;;;;4102324;28;20344;-45
2022/06/12 02:21:48;;;;;;;;;;;19.60;43.90;;;;;;4106594;28;19925;-43
2022/06/12 02:23:59;;;;;;;;;;;19.60;43.90;;;;;;4108874;28;20704;-46
2022/06/12 02:26:02;;;;;;;;;;;19.50;44.00;;;;;;4106225;28;21155;-44
2022/06/12 02:28:12;;;;;;;;;;;19.50;44.10;;;;;;4102946;28;19929;-47
2022/06/12 02:30:19;;;;;;;;;;;19.40;44.20;;;;;;4102330;28;19925;-47
2022/06/12 02:32:27;;;;;;;;;;;19.40;44.20;;;;;;4102506;28;19948;-44
2022/06/12 02:34:31;;;;;;;;;;;19.30;44.30;;;;;;4108727;28;19939;-45
2022/06/12 02:36:41;;;;;;;;;;;19.30;44.40;;;;;;4092119;28;20060;-45
2022/06/12 02:38:46;;;;;;;;;;;19.30;44.30;;;;;;4105313;28;19929;-43
2022/06/12 02:40:58;;;;;;;;;;;19.20;44.50;;;;;;4102550;28;19933;-43
2022/06/12 02:43:04;;;;;;;;;;;19.20;44.60;;;;;;4102514;28;19929;-49
2022/06/12 02:45:11;;;;;;;;;;;19.20;44.60;;;;;;4103233;28;20048;-48
2022/06/12 02:47:16;;;;;;;;;;;19.10;44.70;;;;;;4101935;28;19925;-43
2022/06/12 02:49:18;;;;;;;;;;;19.10;44.80;;;;;;4110052;28;20149;-43
2022/06/12 02:51:38;;;;;;;;;;;19.00;44.70;;;;;;4105230;28;19929;-51
2022/06/12 02:53:42;;;;;;;;;;;19.00;44.70;;;;;;4111048;28;19926;-44
2022/06/12 02:56:02;;;;;;;;;;;19.00;44.80;;;;;;4101843;28;21259;-46
2022/06/12 02:58:13;;;;;;;;;;;18.90;44.90;;;;;;4111582;28;19929;-46
2022/06/12 03:00:34;;;;;;;;;;;18.90;44.90;;;;;;4110620;28;21512;-44
2022/06/12 03:02:57;;;;;;;;;;;18.90;45.00;;;;;;4099727;28;19976;-45
2022/06/12 03:05:22;;;;;;;;;;;18.90;44.90;;;;;;4103374;28;20019;-44
2022/06/12 03:07:24;;;;;;;;;;;18.80;44.80;;;;;;4117017;28;19931;-49
2022/06/12 03:09:25;;;;;;;;;;;18.80;44.80;;;;;;4108925;28;19940;-43
2022/06/12 03:11:28;;;;;;;;;;;18.80;45.00;;;;;;4109486;28;20020;-47
2022/06/12 03:13:31;;;;;;;;;;;18.80;45.00;;;;;;4115578;28;20268;-48
2022/06/12 03:15:32;;;;;;;;;;;18.80;45.00;;;;;;4111050;28;19928;-45
2022/06/12 03:17:34;;;;;;;;;;;18.80;45.10;;;;;;4109451;28;20028;-47
2022/06/12 03:19:42;;;;;;;;;;;18.70;45.00;;;;;;4117496;28;20031;-47
2022/06/12 03:21:44;;;;;;;;;;;18.70;45.00;;;;;;4114461;28;19936;-46
2022/06/12 03:23:57;;;;;;;;;;;18.70;45.10;;;;;;4109134;28;19924;-48
2022/06/12 03:26:00;;;;;;;;;;;18.70;45.20;;;;;;4109986;28;19936;-46
2022/06/12 03:28:01;;;;;;;;;;;18.70;45.20;;;;;;4110485;28;19932;-45
2022/06/12 03:30:06;;;;;;;;;;;18.70;45.10;;;;;;4119026;28;19939;-48
2022/06/12 03:32:12;;;;;;;;;;;18.70;45.20;;;;;;4111069;28;20476;-47
2022/06/12 03:34:13;;;;;;;;;;;18.70;45.00;;;;;;4108917;28;19925;-42
2022/06/12 03:36:24;;;;;;;;;;;18.70;45.00;;;;;;4109169;28;20518;-48
2022/06/12 03:38:32;;;;;;;;;;;18.70;45.00;;;;;;4109075;28;19929;-52
2022/06/12 03:40:33;;;;;;;;;;;18.70;44.90;;;;;;4112728;28;19944;-45
2022/06/12 03:42:58;;;;;;;;;;;18.70;44.80;;;;;;4113324;28;20778;-47
2022/06/12 03:45:03;;;;;;;;;;;18.70;44.80;;;;;;4108707;28;20015;-43
2022/06/12 03:47:10;;;;;;;;;;;18.70;44.90;;;;;;4116040;28;19925;-48
2022/06/12 03:49:11;;;;;;;;;;;18.70;44.80;;;;;;4113881;28;20015;-46
2022/06/12 03:51:13;;;;;;;;;;;18.80;44.80;;;;;;4108207;28;20195;-46
2022/06/12 03:53:23;;;;;;;;;;;18.80;44.80;;;;;;4109725;28;20289;-44
2022/06/12 03:57:59;;;;;;;;;;;18.80;44.80;;;;;;4112005;28;20789;-48
2022/06/12 04:00:08;;;;;;;;;;;18.80;44.80;;;;;;4108164;28;20477;-43
2022/06/12 04:02:12;;;;;;;;;;;18.90;44.80;;;;;;4109113;28;19931;-50
2022/06/12 04:04:14;;;;;;;;;;;18.90;44.70;;;;;;4116020;28;20557;-43
2022/06/12 04:06:18;;;;;;;;;;;18.90;44.70;;;;;;4109460;28;19937;-45
2022/06/12 04:08:22;;;;;;;;;;;18.90;44.70;;;;;;4100980;28;20119;-46
2022/06/12 04:10:26;;;;;;;;;;;19.00;44.70;;;;;;4101081;28;19952;-46
2022/06/12 04:12:29;;;;;;;;;;;19.00;44.70;;;;;;4109780;28;20040;-44
2022/06/12 04:14:32;;;;;;;;;;;19.00;44.70;;;;;;4103117;28;19932;-45
2022/06/12 04:16:36;;;;;;;;;;;19.00;44.60;;;;;;4101639;28;19926;-46
2022/06/12 04:18:37;;;;;;;;;;;19.10;44.70;;;;;;4103016;28;19929;-44
2022/06/12 04:20:39;;;;;;;;;;;19.10;44.70;;;;;;4107191;28;20337;-43
2022/06/12 04:22:49;;;;;;;;;;;19.10;44.60;;;;;;4101286;28;19971;-46
2022/06/12 04:24:59;;;;;;;;;;;19.20;44.60;;;;;;4100728;28;19990;-46
2022/06/12 04:27:05;;;;;;;;;;;19.20;44.60;;;;;;4101615;28;20251;-47
2022/06/12 04:29:13;;;;;;;;;;;19.30;44.70;;;;;;4102917;28;20520;-49
2022/06/12 04:31:18;;;;;;;;;;;19.30;44.60;;;;;;4104007;28;19948;-45
2022/06/12 04:33:22;;;;;;;;;;;19.30;44.50;;;;;;4108994;28;20401;-45
2022/06/12 04:35:24;;;;;;;;;;;19.30;44.50;;;;;;4101786;28;21126;-47
2022/06/12 04:37:28;;;;;;;;;;;19.40;44.50;;;;;;4101167;28;20412;-48
2022/06/12 04:39:32;;;;;;;;;;;19.40;44.50;;;;;;4106537;28;20321;-48
2022/06/12 04:41:38;;;;;;;;;;;19.40;44.40;;;;;;4089248;28;20448;-47
2022/06/12 04:43:39;;;;;;;;;;;19.40;44.30;;;;;;4102472;28;20901;-44
2022/06/12 04:45:41;;;;;;;;;;;19.50;44.40;;;;;;4101740;28;19925;-48
2022/06/12 04:47:43;;;;;;;;;;;19.50;44.40;;;;;;4108422;28;20569;-44
2022/06/12 04:49:45;;;;;;;;;;;19.50;44.40;;;;;;4101494;28;19929;-46
2022/06/12 04:51:47;;;;;;;;;;;19.60;44.40;;;;;;4101131;28;20513;-45
2022/06/12 04:53:49;;;;;;;;;;;19.60;44.60;;;;;;4106623;28;20055;-46
2022/06/12 04:55:51;;;;;;;;;;;19.60;44.40;;;;;;4086274;28;19933;-45
2022/06/12 04:57:52;;;;;;;;;;;19.60;44.30;;;;;;4102166;28;19990;-47
2022/06/12 04:59:54;;;;;;;;;;;19.60;44.40;;;;;;4103464;28;20460;-45
2022/06/12 05:01:56;;;;;;;;;;;19.60;44.60;;;;;;4107533;28;19935;-46
2022/06/12 05:03:57;;;;;;;;;;;19.60;44.80;;;;;;4096650;28;19925;-46
2022/06/12 05:05:59;;;;;;;;;;;19.70;45.00;;;;;;4102700;28;19970;-44
2022/06/12 05:08:01;;;;;;;;;;;19.70;44.90;;;;;;4117466;28;20376;-43
2022/06/12 05:10:03;;;;;;;;;;;19.70;44.90;;;;;;4108061;28;19929;-46
2022/06/12 05:12:05;;;;;;;;;;;19.60;44.90;;;;;;4095855;28;20448;-47
2022/06/12 05:14:06;;;;;;;;;;;19.70;45.10;;;;;;4096898;28;20401;-44
2022/06/12 05:16:09;;;;;;;;;;;19.70;44.90;;;;;;4105855;28;19936;-47
2022/06/12 05:18:12;;;;;;;;;;;19.60;44.90;;;;;;4105523;28;19925;-49
2022/06/12 05:20:17;;;;;;;;;;;19.60;44.90;;;;;;4112705;28;20034;-45
2022/06/12 05:22:22;;;;;;;;;;;19.60;44.80;;;;;;4104784;28;21020;-44
2022/06/12 05:24:23;;;;;;;;;;;19.60;44.80;;;;;;4099704;28;19929;-49
2022/06/12 05:26:25;;;;;;;;;;;19.50;44.90;;;;;;4103587;28;20074;-43
2022/06/12 05:28:27;;;;;;;;;;;19.50;44.90;;;;;;4112064;28;20385;-46
2022/06/12 05:30:29;;;;;;;;;;;19.50;45.00;;;;;;4101408;28;19936;-48
2022/06/12 05:32:31;;;;;;;;;;;19.40;44.90;;;;;;4104187;28;19963;-44
2022/06/12 05:34:33;;;;;;;;;;;19.40;44.90;;;;;;4110096;28;20059;-45
2022/06/12 05:36:36;;;;;;;;;;;19.40;45.10;;;;;;4088741;28;19941;-45
2022/06/12 05:38:37;;;;;;;;;;;19.30;45.10;;;;;;4101696;28;20030;-45
2022/06/12 05:40:40;;;;;;;;;;;19.40;45.20;;;;;;4107506;28;20019;-44
2022/06/12 05:42:42;;;;;;;;;;;19.30;45.30;;;;;;4109844;28;19929;-45
2022/06/12 05:44:44;;;;;;;;;;;19.30;45.40;;;;;;4102455;28;19926;-47
2022/06/12 05:46:46;;;;;;;;;;;19.20;45.50;;;;;;4103848;28;19936;-47
2022/06/12 05:48:48;;;;;;;;;;;19.20;45.60;;;;;;4111790;28;20003;-46
2022/06/12 05:50:54;;;;;;;;;;;19.20;45.60;;;;;;4103280;28;20074;-45
2022/06/12 05:52:56;;;;;;;;;;;19.20;45.80;;;;;;4102419;28;19995;-45
2022/06/12 05:54:57;;;;;;;;;;;19.20;45.70;;;;;;4107573;28;19925;-45
2022/06/12 05:56:59;;;;;;;;;;;19.10;45.80;;;;;;4106491;28;21541;-46
2022/06/12 05:59:01;;;;;;;;;;;19.10;45.90;;;;;;4102594;28;19930;-45
2022/06/12 06:01:04;;;;;;;;;;;19.10;46.00;;;;;;4105278;28;19936;-47
2022/06/12 06:03:06;;;;;;;;;;;19.10;46.00;;;;;;4109452;28;19928;-43
2022/06/12 06:05:07;;;;;;;;;;;19.10;46.00;;;;;;4102482;28;19964;-44
2022/06/12 06:07:09;;;;;;;;;;;19.10;46.10;;;;;;4097530;28;19921;-48
2022/06/12 06:09:11;;;;;;;;;;;19.00;46.10;;;;;;4103252;28;19926;-48
2022/06/12 06:11:13;;;;;;;;;;;19.00;46.10;;;;;;4096484;28;19936;-43
2022/06/12 06:13:16;;;;;;;;;;;19.00;46.80;;;;;;4097268;28;19932;-48
2022/06/12 06:15:18;;;;;;;;;;;19.00;46.80;;;;;;4105587;28;19948;-44
2022/06/12 06:17:19;;;;;;;;;;;19.00;46.20;;;;;;4081902;28;21863;-50
2022/06/12 06:19:21;;;;;;;;;;;18.90;46.30;;;;;;4095928;28;19930;-56
2022/06/12 06:21:23;;;;;;;;;;;18.90;46.30;;;;;;4100255;28;19933;-43
2022/06/12 06:23:24;;;;;;;;;;;18.90;46.30;;;;;;4098992;28;20807;-43
2022/06/12 06:25:27;;;;;;;;;;;18.90;46.30;;;;;;4076082;28;20528;-45
2022/06/12 06:27:29;;;;;;;;;;;18.90;46.80;;;;;;4101687;28;20321;-43
2022/06/12 06:29:31;;;;;;;;;;;18.90;46.40;;;;;;4104356;28;19929;-42
2022/06/12 06:31:32;;;;;;;;;;;19.10;46.40;;;;;;4076624;28;20234;-45
2022/06/12 06:33:34;;;;;;;;;;;19.30;45.90;;;;;;4098829;28;19925;-46
2022/06/12 06:35:36;;;;;;;;;;;19.40;45.90;;;;;;4108557;28;20425;-40
2022/06/12 06:37:39;;;;;;;;;;;19.40;45.40;;;;;;4099019;28;19929;-44
2022/06/12 06:39:42;;;;;;;;;;;19.30;45.50;;;;;;4097754;28;19935;-44
2022/06/12 06:41:44;;;;;;;;;;;19.10;45.60;;;;;;4103453;28;20528;-44
2022/06/12 06:46:14;;;;;;;;;;;18.90;46.00;;;;;;4103936;28;20013;-46
2022/06/12 06:48:16;;;;;;;;;;;18.90;46.20;;;;;;4086181;28;19929;-46
2022/06/12 06:50:19;;;;;;;;;;;18.80;46.40;;;;;;4096644;28;20449;-44
2022/06/12 06:52:20;;;;;;;;;;;18.80;46.50;;;;;;4094868;28;19925;-48
2022/06/12 06:54:22;;;;;;;;;;;18.70;46.60;;;;;;4111611;28;19930;-45
2022/06/12 06:56:24;;;;;;;;;;;18.70;46.70;;;;;;4094017;28;20753;-48
2022/06/12 06:58:26;;;;;;;;;;;18.60;46.80;;;;;;4096024;28;20394;-48
2022/06/12 07:00:30;;;;;;;;;;;18.60;47.00;;;;;;4108012;28;20399;-45
2022/06/12 07:02:32;;;;;;;;;;;18.50;46.90;;;;;;4104696;28;20440;-45
2022/06/12 07:04:34;;;;;;;;;;;18.50;47.10;;;;;;4099995;28;19988;-47
2022/06/12 07:06:35;;;;;;;;;;;18.50;47.10;;;;;;4104764;28;20275;-48
2022/06/12 07:08:37;;;;;;;;;;;18.50;47.30;;;;;;4112559;28;20290;-46
2022/06/12 07:10:39;;;;;;;;;;;18.40;47.30;;;;;;4105148;28;20051;-45
2022/06/12 07:12:41;;;;;;;;;;;18.40;47.30;;;;;;4107291;28;20417;-44
2022/06/12 07:14:42;;;;;;;;;;;18.40;47.50;;;;;;4114393;28;19929;-48
2022/06/12 07:16:44;;;;;;;;;;;18.40;47.40;;;;;;4106512;28;19960;-49
2022/06/12 07:18:45;;;;;;;;;;;18.40;47.50;;;;;;4105484;28;20023;-49
2022/06/12 07:20:49;;;;;;;;;;;18.30;47.50;;;;;;4114100;28;19925;-48
2022/06/12 07:22:51;;;;;;;;;;;18.30;47.50;;;;;;4104419;28;21208;-45
2022/06/12 07:24:52;;;;;;;;;;;18.30;47.60;;;;;;4103095;28;20420;-49
2022/06/12 07:26:54;;;;;;;;;;;18.30;47.70;;;;;;4113115;28;19947;-49
2022/06/12 07:28:55;;;;;;;;;;;18.30;47.70;;;;;;4105080;28;20010;-46
2022/06/12 07:30:57;;;;;;;;;;;18.20;47.70;;;;;;4105335;28;20436;-48
2022/06/12 07:32:59;;;;;;;;;;;18.20;48.00;;;;;;4112211;28;19928;-46
2022/06/12 07:35:01;;;;;;;;;;;18.20;47.80;;;;;;4107461;28;21281;-47
2022/06/12 07:37:02;;;;;;;;;;;18.20;47.80;;;;;;4104550;28;20015;-48
2022/06/12 07:39:06;;;;;;;;;;;18.20;47.80;;;;;;4110639;28;20006;-44
2022/06/12 07:41:09;;;;;;;;;;;18.20;47.90;;;;;;4109814;28;20576;-50
2022/06/12 07:43:11;;;;;;;;;;;18.10;47.90;;;;;;4107535;28;20012;-46
2022/06/12 07:45:13;;;;;;;;;;;18.10;47.90;;;;;;4087815;28;20848;-45
2022/06/12 07:47:14;;;;;;;;;;;18.10;47.90;;;;;;4113304;28;20010;-47
2022/06/12 07:49:17;;;;;;;;;;;18.10;48.00;;;;;;4105798;28;20633;-49
2022/06/12 07:51:20;;;;;;;;;;;18.10;48.20;;;;;;4103501;28;19931;-46
2022/06/12 07:53:22;;;;;;;;;;;18.10;48.00;;;;;;4111887;28;19932;-47
2022/06/12 07:55:23;;;;;;;;;;;18.10;48.10;;;;;;4108442;28;20643;-46
2022/06/12 07:57:25;;;;;;;;;;;18.00;48.10;;;;;;4105700;28;20023;-46
2022/06/12 07:59:27;;;;;;;;;;;18.00;48.10;;;;;;4075737;28;19929;-46
2022/06/12 08:01:29;;;;;;;;;;;18.00;48.10;;;;;;4108631;28;19937;-46
2022/06/12 08:03:31;;;;;;;;;;;18.00;48.10;;;;;;4104191;28;20906;-45
2022/06/12 08:05:33;;;;;;;;;;;18.00;48.90;;;;;;4107186;28;20373;-47
2022/06/12 08:07:38;;;;;;;;;;;18.00;48.20;;;;;;4105301;28;20039;-46
2022/06/12 08:09:40;;;;;;;;;;;18.00;48.20;;;;;;4099656;28;19929;-46
2022/06/12 08:11:44;;;;;;;;;;;18.00;48.30;;;;;;4095788;28;19926;-49
2022/06/12 08:13:45;;;;;;;;;;;18.00;48.30;;;;;;4102762;28;20381;-42
2022/06/12 08:15:48;;;;;;;;;;;17.90;48.30;;;;;;4102999;28;19929;-44
2022/06/12 08:17:49;;;;;;;;;;;17.90;48.30;;;;;;4098256;28;19952;-43
2022/06/12 08:22:11;;;;;;;;;;;17.90;48.40;;;;;;4080147;28;20070;-46
2022/06/12 08:24:12;;;;;;;;;;;17.90;48.50;;;;;;4104241;28;19993;-44
2022/06/12 08:26:16;;;;;;;;;;;17.90;48.40;;;;;;4095995;28;20952;-48
2022/06/12 08:28:18;;;;;;;;;;;17.90;48.50;;;;;;4096763;28;19944;-45
2022/06/12 08:30:20;;;;;;;;;;;17.80;48.50;;;;;;4099147;28;20678;-43
2022/06/12 08:32:21;;;;;;;;;;;17.80;48.50;;;;;;4105823;28;19929;-45
2022/06/12 08:34:28;;;;;;;;;;;17.80;48.50;;;;;;4100144;28;19925;-47
2022/06/12 08:36:30;;;;;;;;;;;17.80;48.60;;;;;;4100375;28;19925;-46
2022/06/12 08:38:32;;;;;;;;;;;17.80;48.60;;;;;;4107244;28;19944;-43
2022/06/12 08:40:38;;;;;;;;;;;17.80;48.70;;;;;;4086615;28;20970;-43
2022/06/12 08:42:44;;;;;;;;;;;17.80;48.70;;;;;;4100096;28;20289;-45
2022/06/12 08:44:51;;;;;;;;;;;17.70;48.70;;;;;;4101646;28;20055;-45
2022/06/12 08:46:55;;;;;;;;;;;17.70;48.80;;;;;;4102139;28;19987;-45
2022/06/12 08:48:57;;;;;;;;;;;17.70;48.80;;;;;;4108169;28;20031;-46
2022/06/12 08:51:21;;;;;;;;;;;17.70;48.90;;;;;;4101241;28;20648;-46
2022/06/12 08:53:25;;;;;;;;;;;17.70;48.90;;;;;;4107953;28;19936;-47
2022/06/12 08:55:46;;;;;;;;;;;17.70;49.00;;;;;;4105097;28;20595;-48
2022/06/12 08:57:52;;;;;;;;;;;17.70;49.00;;;;;;4107059;28;19940;-47
2022/06/12 09:00:20;;;;;;;;;;;17.70;49.10;;;;;;4108537;28;20263;-46
2022/06/12 09:02:23;;;;;;;;;;;17.60;49.00;;;;;;4097905;28;20402;-48
2022/06/12 09:04:25;;;;;;;;;;;17.60;49.00;;;;;;4102459;28;19952;-46
2022/06/12 09:06:32;;;;;;;;;;;17.60;49.10;;;;;;4091814;28;19929;-45
2022/06/12 09:08:56;;;;;;;;;;;17.60;49.10;;;;;;4123122;28;20267;-44
2022/06/12 09:10:58;;;;;;;;;;;17.60;49.10;;;;;;4130140;28;20710;-46
2022/06/12 09:13:15;;;;;;;;;;;17.60;49.20;;;;;;4123858;28;20643;-47
2022/06/12 09:15:34;;;;;;;;;;;17.60;49.20;;;;;;4128993;28;19947;-46
2022/06/12 09:17:44;;;;;;;;;;;17.50;49.20;;;;;;4129112;28;20346;-49
2022/06/12 09:20:00;;;;;;;;;;;17.50;49.20;;;;;;4133259;28;19925;-44
2022/06/12 09:22:14;;;;;;;;;;;17.50;49.30;;;;;;4128336;28;21045;-47
2022/06/12 09:24:19;;;;;;;;;;;17.50;49.20;;;;;;4128210;28;20047;-47
2022/06/12 09:26:36;;;;;;;;;;;17.50;49.30;;;;;;4128656;28;19932;-47
2022/06/12 09:28:37;;;;;;;;;;;17.50;49.40;;;;;;4124110;28;20007;-45
2022/06/12 09:30:49;;;;;;;;;;;17.50;49.40;;;;;;4120574;28;19951;-44
2022/06/12 09:33:03;;;;;;;;;;;17.50;49.40;;;;;;4121697;28;20443;-46
2022/06/12 09:35:04;;;;;;;;;;;17.50;49.40;;;;;;4125149;28;21152;-48
2022/06/12 09:39:47;;;;;;;;;;;17.40;49.40;;;;;;4127674;28;19929;-44
2022/06/12 09:41:52;;;;;;;;;;;17.40;49.40;;;;;;4125008;28;20437;-44
2022/06/12 09:44:11;;;;;;;;;;;17.40;49.50;;;;;;4124797;28;19928;-44
2022/06/12 09:46:32;;;;;;;;;;;17.40;49.50;;;;;;4127747;28;19929;-43
2022/06/12 09:48:46;;;;;;;;;;;17.40;49.50;;;;;;4121957;28;19952;-45
2022/06/12 09:51:06;;;;;;;;;;;17.40;49.60;;;;;;4121903;28;19924;-43
2022/06/12 09:53:26;;;;;;;;;;;17.30;49.50;;;;;;4116249;28;19933;-47
2022/06/12 09:55:34;;;;;;;;;;;17.30;49.50;;;;;;4126118;28;20178;-45
2022/06/12 09:57:53;;;;;;;;;;;17.30;49.50;;;;;;4121083;28;19925;-46
2022/06/12 10:00:17;;;;;;;;;;;17.30;49.50;;;;;;4123733;28;19943;-45
2022/06/12 10:02:39;;;;;;;;;;;17.30;49.60;;;;;;4118785;28;19925;-43
2022/06/12 10:04:56;;;;;;;;;;;17.30;49.60;;;;;;4117425;28;20277;-43
2022/06/12 10:07:08;;;;;;;;;;;17.30;49.60;;;;;;4103398;28;20246;-46
2022/06/12 10:09:21;;;;;;;;;;;17.30;49.60;;;;;;4096798;28;20040;-47
2022/06/12 10:11:24;;;;;;;;;;;17.20;49.60;;;;;;4076187;28;19929;-48
2022/06/12 10:13:39;;;;;;;;;;;17.20;49.60;;;;;;4096700;28;19936;-44
2022/06/12 10:15:44;;;;;;;;;;;17.20;49.60;;;;;;4096879;28;20712;-51
2022/06/12 10:18:06;;;;;;;;;;;17.20;49.60;;;;;;4097386;28;19932;-48
2022/06/12 10:20:13;;;;;;;;;;;17.20;49.70;;;;;;4096540;28;19925;-51
2022/06/12 10:22:19;;;;;;;;;;;17.20;49.70;;;;;;4092633;28;20382;-45
2022/06/12 10:24:21;;;;;;;;;;;17.10;49.70;;;;;;4097962;28;19982;-49
2022/06/12 10:26:30;;;;;;;;;;;17.20;49.80;;;;;;4105660;28;19979;-49
2022/06/12 10:28:34;;;;;;;;;;;17.10;49.80;;;;;;4103861;28;19937;-50
2022/06/12 10:30:38;;;;;;;;;;;17.10;49.70;;;;;;4101768;28;19933;-46
2022/06/12 10:32:52;;;;;;;;;;;17.10;49.80;;;;;;4098678;28;20583;-46
2022/06/12 10:35:06;;;;;;;;;;;17.10;49.80;;;;;;4100360;28;19929;-48
2022/06/12 10:37:28;;;;;;;;;;;17.10;49.80;;;;;;4095480;28;20447;-47
2022/06/12 10:39:32;;;;;;;;;;;17.10;49.80;;;;;;4100249;28;20047;-49
2022/06/12 10:41:41;;;;;;;;;;;17.00;49.80;;;;;;4097294;28;20469;-46
2022/06/12 10:43:47;;;;;;;;;;;17.10;49.90;;;;;;4099425;28;20030;-43
2022/06/12 10:45:56;;;;;;;;;;;17.10;49.90;;;;;;4100511;28;19995;-49
2022/06/12 10:48:00;;;;;;;;;;;17.00;49.90;;;;;;4107119;28;19963;-45
2022/06/12 10:50:08;;;;;;;;;;;17.00;49.90;;;;;;4106691;28;19929;-49
2022/06/12 10:52:17;;;;;;;;;;;17.00;49.90;;;;;;4101281;28;20237;-50
2022/06/12 10:54:20;;;;;;;;;;;17.00;49.90;;;;;;4097383;28;19925;-50
2022/06/12 10:56:28;;;;;;;;;;;17.00;49.90;;;;;;4098125;28;19929;-48
2022/06/12 10:58:32;;;;;;;;;;;17.00;49.90;;;;;;4103249;28;20012;-44
2022/06/12 11:00:37;;;;;;;;;;;17.00;49.90;;;;;;4108386;28;20404;-47
2022/06/12 11:02:48;;;;;;;;;;;16.90;50.00;;;;;;4104254;28;21472;-47
2022/06/12 11:04:58;;;;;;;;;;;16.90;49.90;;;;;;4084077;28;20297;-49
2022/06/12 11:07:21;;;;;;;;;;;16.90;49.90;;;;;;4106706;28;20057;-49
2022/06/12 11:09:32;;;;;;;;;;;16.90;49.90;;;;;;4118104;28;19951;-50
2022/06/12 11:11:34;;;;;;;;;;;16.90;49.90;;;;;;4119107;28;20546;-47
2022/06/12 11:13:53;;;;;;;;;;;16.90;50.70;;;;;;4111250;28;19929;-50
2022/06/12 11:16:07;;;;;;;;;;;16.90;50.00;;;;;;4116338;28;20925;-47
2022/06/12 11:18:14;;;;;;;;;;;16.90;50.00;;;;;;4117994;28;20047;-45
2022/06/12 11:20:25;;;;;;;;;;;16.80;50.00;;;;;;4110417;28;19948;-50
2022/06/12 11:22:37;;;;;;;;;;;16.80;50.00;;;;;;4092720;28;21011;-50
2022/06/12 11:24:51;;;;;;;;;;;16.80;50.10;;;;;;4111065;28;20063;-47
2022/06/12 11:26:58;;;;;;;;;;;16.80;50.10;;;;;;4111029;28;19928;-43
2022/06/12 11:29:17;;;;;;;;;;;16.80;50.10;;;;;;4109394;28;20336;-48
2022/06/12 11:31:32;;;;;;;;;;;16.80;50.10;;;;;;4113173;28;20055;-45
2022/06/12 11:33:43;;;;;;;;;;;16.80;50.10;;;;;;4117635;28;19936;-51
2022/06/12 11:35:46;;;;;;;;;;;16.70;50.10;;;;;;4114003;28;20694;-49
2022/06/12 11:38:06;;;;;;;;;;;16.70;50.10;;;;;;4109941;28;20007;-47
2022/06/12 11:40:24;;;;;;;;;;;16.70;50.10;;;;;;4112487;28;20332;-48
2022/06/12 11:42:44;;;;;;;;;;;16.70;50.20;;;;;;4118153;28;19936;-45
2022/06/12 11:44:46;;;;;;;;;;;16.70;50.20;;;;;;4112709;28;19930;-43
2022/06/12 11:47:06;;;;;;;;;;;16.70;50.20;;;;;;4097602;28;20287;-48
2022/06/12 11:49:19;;;;;;;;;;;16.70;50.20;;;;;;4116471;28;19960;-45
2022/06/12 11:51:47;;;;;;;;;;;16.60;50.20;;;;;;4113698;28;19986;-45
2022/06/12 11:54:04;;;;;;;;;;;16.60;50.20;;;;;;4106394;28;19925;-48
2022/06/12 11:56:14;;;;;;;;;;;16.60;50.20;;;;;;4112542;28;20608;-45
2022/06/12 11:58:40;;;;;;;;;;;16.60;50.30;;;;;;4108238;28;20743;-45
2022/06/12 12:00:53;;;;;;;;;;;16.60;50.30;;;;;;4114635;28;19940;-44
2022/06/12 12:03:03;;;;;;;;;;;16.60;50.30;;;;;;4094727;28;20783;-51
2022/06/12 12:05:20;;;;;;;;;;;16.60;50.30;;;;;;4115860;28;20333;-45
2022/06/12 12:07:28;;;;;;;;;;;16.50;50.40;;;;;;4104496;28;19951;-48
2022/06/12 12:09:35;;;;;;;;;;;16.60;50.40;;;;;;4107680;28;19930;-44
2022/06/12 12:11:48;;;;;;;;;;;16.50;50.30;;;;;;4109812;28;20327;-45
2022/06/12 12:13:53;;;;;;;;;;;16.50;50.30;;;;;;4091739;28;20312;-48
2022/06/12 12:15:56;;;;;;;;;;;16.50;50.40;;;;;;4105547;28;20400;-46
2022/06/12 12:17:58;;;;;;;;;;;16.50;50.40;;;;;;4102672;28;19925;-52
2022/06/12 12:20:05;;;;;;;;;;;16.50;50.30;;;;;;4105742;28;20274;-45
2022/06/12 12:22:10;;;;;;;;;;;16.50;50.40;;;;;;4107481;28;19976;-46
2022/06/12 12:24:18;;;;;;;;;;;16.50;50.40;;;;;;4105387;28;20663;-52
2022/06/12 12:26:23;;;;;;;;;;;16.50;50.40;;;;;;4102315;28;20456;-47
2022/06/12 12:28:36;;;;;;;;;;;16.40;50.30;;;;;;4102078;28;20337;-48
2022/06/12 12:30:40;;;;;;;;;;;16.40;50.50;;;;;;4099551;28;19932;-50
2022/06/12 12:32:42;;;;;;;;;;;16.40;50.40;;;;;;4101955;28;20337;-47